createdAt,value
2017-01-30T00:00:15.561Z,0
2017-01-30T00:01:25.745Z,0
2017-01-30T00:02:35.898Z,0
2017-01-30T00:03:46.122Z,0
2017-01-30T00:04:56.289Z,0
2017-01-30T00:06:06.886Z,0
2017-01-30T00:07:16.600Z,0
2017-01-30T00:08:26.790Z,0
2017-01-30T00:09:36.994Z,0
2017-01-30T00:10:48.019Z,0
2017-01-30T00:11:58.185Z,0
2017-01-30T00:13:08.339Z,0
2017-01-30T00:14:18.079Z,0
2017-01-30T00:15:28.283Z,0
2017-01-30T00:16:38.885Z,0
2017-01-30T00:17:48.640Z,0
2017-01-30T00:18:58.800Z,0
2017-01-30T00:20:08.523Z,0
2017-01-30T00:21:18.733Z,0
2017-01-30T00:22:28.885Z,0
2017-01-30T00:23:38.613Z,0
2017-01-30T00:24:48.769Z,0
2017-01-30T00:25:58.932Z,0
2017-01-30T00:27:10.019Z,0
2017-01-30T00:28:19.749Z,0
2017-01-30T00:29:29.469Z,0
2017-01-30T00:30:39.626Z,0
2017-01-30T00:31:50.224Z,0
2017-01-30T00:33:00.422Z,0
2017-01-30T00:34:10.143Z,0
2017-01-30T00:35:19.860Z,0
2017-01-30T00:36:30.016Z,0
2017-01-30T00:37:40.177Z,0
2017-01-30T00:38:50.828Z,0
2017-01-30T00:40:00.113Z,0
2017-01-30T00:41:09.397Z,0
2017-01-30T00:42:19.563Z,0
2017-01-30T00:43:29.714Z,0
2017-01-30T00:44:40.043Z,0
2017-01-30T00:45:49.330Z,0
2017-01-30T00:46:59.927Z,0
2017-01-30T00:48:10.522Z,0
2017-01-30T00:49:20.246Z,0
2017-01-30T00:50:30.444Z,0
2017-01-30T00:51:39.727Z,0
2017-01-30T00:52:49.458Z,0
2017-01-30T00:53:59.177Z,0
2017-01-30T00:55:09.343Z,0
2017-01-30T00:56:19.988Z,0
2017-01-30T00:57:30.149Z,0
2017-01-30T00:58:40.309Z,0
2017-01-30T00:59:50.028Z,0
2017-01-30T01:01:00.623Z,0
2017-01-30T01:02:09.956Z,0
2017-01-30T01:03:19.239Z,0
2017-01-30T01:04:29.398Z,0
2017-01-30T01:05:38.690Z,0
2017-01-30T01:06:48.408Z,0
2017-01-30T01:07:57.738Z,0
2017-01-30T01:09:07.461Z,0
2017-01-30T01:10:17.187Z,0
2017-01-30T01:11:26.473Z,0
2017-01-30T01:12:36.638Z,0
2017-01-30T01:13:45.978Z,0
2017-01-30T01:14:56.141Z,0
2017-01-30T01:16:05.424Z,0
2017-01-30T01:17:15.150Z,0
2017-01-30T01:18:24.428Z,0
2017-01-30T01:19:34.195Z,0
2017-01-30T01:20:43.914Z,0
2017-01-30T01:21:53.632Z,0
2017-01-30T01:23:03.787Z,0
2017-01-30T01:24:13.956Z,0
2017-01-30T01:25:23.286Z,0
2017-01-30T01:26:33.885Z,0
2017-01-30T01:27:43.175Z,0
2017-01-30T01:28:53.789Z,0
2017-01-30T01:30:03.977Z,0
2017-01-30T01:31:13.311Z,0
2017-01-30T01:32:23.905Z,0
2017-01-30T01:33:34.497Z,0
2017-01-30T01:34:44.219Z,0
2017-01-30T01:35:54.378Z,0
2017-01-30T01:37:04.585Z,0
2017-01-30T01:38:14.731Z,0
2017-01-30T01:39:24.896Z,0
2017-01-30T01:40:35.059Z,0
2017-01-30T01:41:44.816Z,0
2017-01-30T01:42:55.023Z,0
2017-01-30T01:44:05.180Z,0
2017-01-30T01:45:14.901Z,0
2017-01-30T01:46:24.615Z,0
2017-01-30T01:47:34.776Z,0
2017-01-30T01:48:44.549Z,0
2017-01-30T01:49:54.271Z,0
2017-01-30T01:51:03.992Z,0
2017-01-30T01:52:14.154Z,0
2017-01-30T01:53:23.434Z,0
2017-01-30T01:54:34.083Z,0
2017-01-30T01:55:43.814Z,0
2017-01-30T01:56:53.529Z,0
2017-01-30T01:58:03.682Z,0
2017-01-30T01:59:13.842Z,0
2017-01-30T02:00:24.049Z,0
2017-01-30T02:01:34.650Z,0
2017-01-30T02:02:45.244Z,0
2017-01-30T02:03:55.417Z,0
2017-01-30T02:05:06.453Z,0
2017-01-30T02:06:16.226Z,0
2017-01-30T02:07:26.390Z,0
2017-01-30T02:08:36.145Z,0
2017-01-30T02:09:45.427Z,0
2017-01-30T02:10:55.593Z,0
2017-01-30T02:12:05.801Z,0
2017-01-30T02:13:15.526Z,0
2017-01-30T02:14:27.113Z,0
2017-01-30T02:15:36.850Z,0
2017-01-30T02:16:47.026Z,0
2017-01-30T02:17:57.251Z,0
2017-01-30T02:19:07.422Z,0
2017-01-30T02:20:17.594Z,0
2017-01-30T02:21:27.323Z,0
2017-01-30T02:22:37.497Z,0
2017-01-30T02:23:47.274Z,0
2017-01-30T02:24:57.014Z,0
2017-01-30T02:26:07.188Z,0
2017-01-30T02:27:16.928Z,0
2017-01-30T02:28:27.099Z,0
2017-01-30T02:29:36.888Z,0
2017-01-30T02:30:46.181Z,0
2017-01-30T02:31:55.913Z,0
2017-01-30T02:33:06.088Z,0
2017-01-30T02:34:15.837Z,0
2017-01-30T02:35:25.623Z,0
2017-01-30T02:36:35.359Z,0
2017-01-30T02:37:45.093Z,0
2017-01-30T02:38:55.261Z,0
2017-01-30T02:40:05.003Z,0
2017-01-30T02:41:14.779Z,0
2017-01-30T02:42:24.954Z,0
2017-01-30T02:43:34.688Z,0
2017-01-30T02:44:45.327Z,0
2017-01-30T02:45:55.056Z,0
2017-01-30T02:47:04.842Z,0
2017-01-30T02:48:14.583Z,0
2017-01-30T02:49:24.756Z,0
2017-01-30T02:50:35.380Z,0
2017-01-30T02:51:45.117Z,0
2017-01-30T02:52:55.779Z,0
2017-01-30T02:54:05.517Z,0
2017-01-30T02:55:15.249Z,0
2017-01-30T02:56:25.424Z,0
2017-01-30T02:57:35.596Z,0
2017-01-30T02:58:45.385Z,0
2017-01-30T02:59:54.681Z,0
2017-01-30T03:01:04.862Z,0
2017-01-30T03:02:14.600Z,0
2017-01-30T03:03:24.766Z,0
2017-01-30T03:04:35.436Z,0
2017-01-30T03:05:45.611Z,0
2017-01-30T03:06:55.342Z,0
2017-01-30T03:08:05.955Z,0
2017-01-30T03:09:15.694Z,0
2017-01-30T03:10:25.920Z,0
2017-01-30T03:11:36.119Z,0
2017-01-30T03:12:45.859Z,0
2017-01-30T03:13:56.477Z,0
2017-01-30T03:15:06.654Z,0
2017-01-30T03:16:16.431Z,0
2017-01-30T03:17:26.197Z,0
2017-01-30T03:18:35.946Z,0
2017-01-30T03:19:45.242Z,0
2017-01-30T03:20:55.849Z,0
2017-01-30T03:22:05.639Z,0
2017-01-30T03:23:16.694Z,0
2017-01-30T03:24:26.867Z,0
2017-01-30T03:25:36.597Z,0
2017-01-30T03:26:46.340Z,0
2017-01-30T03:27:56.119Z,0
2017-01-30T03:29:05.856Z,0
2017-01-30T03:30:16.034Z,0
2017-01-30T03:31:25.329Z,0
2017-01-30T03:32:35.504Z,0
2017-01-30T03:33:45.729Z,0
2017-01-30T03:34:56.346Z,0
2017-01-30T03:36:06.086Z,0
2017-01-30T03:37:16.262Z,0
2017-01-30T03:38:26.436Z,0
2017-01-30T03:39:36.675Z,0
2017-01-30T03:40:46.407Z,0
2017-01-30T03:41:56.136Z,0
2017-01-30T03:43:05.878Z,0
2017-01-30T03:44:16.051Z,0
2017-01-30T03:45:25.501Z,0
2017-01-30T03:46:35.230Z,0
2017-01-30T03:47:45.402Z,0
2017-01-30T03:48:55.576Z,0
2017-01-30T03:50:05.314Z,0
2017-01-30T03:51:15.694Z,0
2017-01-30T03:52:25.427Z,0
2017-01-30T03:53:35.600Z,0
2017-01-30T03:54:45.329Z,0
2017-01-30T03:55:55.062Z,0
2017-01-30T03:57:04.851Z,0
2017-01-30T03:58:15.025Z,0
2017-01-30T03:59:25.195Z,0
2017-01-30T04:00:34.931Z,0
2017-01-30T04:01:44.664Z,0
2017-01-30T04:02:54.448Z,0
2017-01-30T04:04:05.090Z,0
2017-01-30T04:05:15.266Z,0
2017-01-30T04:06:25.437Z,0
2017-01-30T04:07:35.202Z,0
2017-01-30T04:08:44.551Z,0
2017-01-30T04:09:54.285Z,0
2017-01-30T04:11:04.017Z,0
2017-01-30T04:12:13.757Z,0
2017-01-30T04:13:23.492Z,0
2017-01-30T04:14:33.272Z,0
2017-01-30T04:15:43.039Z,0
2017-01-30T04:16:53.233Z,0
2017-01-30T04:18:02.975Z,0
2017-01-30T04:19:13.158Z,0
2017-01-30T04:20:23.383Z,0
2017-01-30T04:21:33.568Z,0
2017-01-30T04:22:43.301Z,0
2017-01-30T04:23:53.030Z,0
2017-01-30T04:25:02.324Z,0
2017-01-30T04:26:12.140Z,0
2017-01-30T04:27:21.878Z,0
2017-01-30T04:28:31.615Z,0
2017-01-30T04:29:41.784Z,0
2017-01-30T04:30:52.401Z,0
2017-01-30T04:32:02.206Z,0
2017-01-30T04:33:11.943Z,0
2017-01-30T04:34:22.117Z,0
2017-01-30T04:35:32.286Z,0
2017-01-30T04:36:42.031Z,0
2017-01-30T04:37:51.975Z,0
2017-01-30T04:39:01.709Z,0
2017-01-30T04:40:11.447Z,0
2017-01-30T04:41:21.180Z,0
2017-01-30T04:42:30.906Z,0
2017-01-30T04:43:40.688Z,0
2017-01-30T04:44:50.862Z,0
2017-01-30T04:46:01.477Z,0
2017-01-30T04:47:11.677Z,0
2017-01-30T04:48:21.850Z,0
2017-01-30T04:49:31.627Z,0
2017-01-30T04:50:41.365Z,0
2017-01-30T04:51:51.539Z,0
2017-01-30T04:53:01.276Z,0
2017-01-30T04:54:11.012Z,0
2017-01-30T04:55:20.798Z,0
2017-01-30T04:56:30.529Z,0
2017-01-30T04:57:40.696Z,0
2017-01-30T04:58:51.318Z,0
2017-01-30T05:00:01.056Z,0
2017-01-30T05:01:12.160Z,0
2017-01-30T05:02:22.335Z,0
2017-01-30T05:03:32.514Z,0
2017-01-30T05:04:43.131Z,0
2017-01-30T05:05:52.875Z,0
2017-01-30T05:07:02.661Z,0
2017-01-30T05:08:12.395Z,0
2017-01-30T05:09:22.127Z,0
2017-01-30T05:10:32.305Z,0
2017-01-30T05:11:42.038Z,0
2017-01-30T05:12:52.266Z,0
2017-01-30T05:14:02.447Z,0
2017-01-30T05:15:12.181Z,0
2017-01-30T05:16:21.916Z,0
2017-01-30T05:17:31.646Z,0
2017-01-30T05:18:41.423Z,0
2017-01-30T05:19:52.046Z,0
2017-01-30T05:21:02.219Z,0
2017-01-30T05:22:11.950Z,0
2017-01-30T05:23:22.588Z,0
2017-01-30T05:24:32.378Z,0
2017-01-30T05:25:42.106Z,0
2017-01-30T05:26:52.280Z,0
2017-01-30T05:28:02.454Z,0
2017-01-30T05:29:12.642Z,0
2017-01-30T05:30:22.428Z,0
2017-01-30T05:31:32.157Z,0
2017-01-30T05:32:42.338Z,0
2017-01-30T05:33:52.072Z,0
2017-01-30T05:35:01.812Z,0
2017-01-30T05:36:11.593Z,0
2017-01-30T05:37:21.327Z,0
2017-01-30T05:38:31.500Z,0
2017-01-30T05:39:41.236Z,0
2017-01-30T05:40:50.970Z,0
2017-01-30T05:42:00.750Z,0
2017-01-30T05:43:10.475Z,0
2017-01-30T05:44:20.208Z,0
2017-01-30T05:45:30.379Z,0
2017-01-30T05:46:40.116Z,0
2017-01-30T05:47:49.893Z,0
2017-01-30T05:48:59.629Z,0
2017-01-30T05:50:09.805Z,0
2017-01-30T05:51:20.014Z,0
2017-01-30T05:52:29.746Z,0
2017-01-30T05:53:39.090Z,0
2017-01-30T05:54:48.823Z,0
2017-01-30T05:55:58.552Z,0
2017-01-30T05:57:08.733Z,0
2017-01-30T05:58:18.027Z,0
2017-01-30T05:59:27.816Z,0
2017-01-30T06:00:37.556Z,0
2017-01-30T06:01:47.727Z,0
2017-01-30T06:02:57.900Z,0
2017-01-30T06:04:07.633Z,0
2017-01-30T06:05:18.305Z,0
2017-01-30T06:06:28.482Z,0
2017-01-30T06:07:39.100Z,0
2017-01-30T06:08:49.276Z,0
2017-01-30T06:09:59.899Z,0
2017-01-30T06:11:10.125Z,0
2017-01-30T06:12:19.850Z,0
2017-01-30T06:13:29.582Z,0
2017-01-30T06:14:38.879Z,0
2017-01-30T06:15:49.488Z,0
2017-01-30T06:16:59.271Z,0
2017-01-30T06:18:09.441Z,0
2017-01-30T06:19:19.613Z,0
2017-01-30T06:20:29.785Z,0
2017-01-30T06:21:39.971Z,0
2017-01-30T06:22:50.198Z,0
2017-01-30T06:24:00.379Z,0
2017-01-30T06:25:10.551Z,0
2017-01-30T06:26:20.280Z,0
2017-01-30T06:27:30.909Z,0
2017-01-30T06:28:40.794Z,0
2017-01-30T06:29:50.531Z,0
2017-01-30T06:30:59.819Z,0
2017-01-30T06:32:09.554Z,0
2017-01-30T06:33:19.286Z,0
2017-01-30T06:34:29.517Z,0
2017-01-30T06:35:40.133Z,0
2017-01-30T06:36:49.866Z,0
2017-01-30T06:37:59.600Z,0
2017-01-30T06:39:09.780Z,0
2017-01-30T06:40:19.560Z,0
2017-01-30T06:41:29.734Z,0
2017-01-30T06:42:39.916Z,0
2017-01-30T06:43:50.098Z,0
2017-01-30T06:44:59.834Z,0
2017-01-30T06:46:09.777Z,0
2017-01-30T06:47:19.064Z,0
2017-01-30T06:48:28.829Z,0
2017-01-30T06:49:39.018Z,0
2017-01-30T06:50:48.753Z,0
2017-01-30T06:51:58.987Z,0
2017-01-30T06:53:08.719Z,0
2017-01-30T06:54:18.453Z,0
2017-01-30T06:55:28.182Z,0
2017-01-30T06:56:37.914Z,0
2017-01-30T06:57:48.136Z,0
2017-01-30T06:58:57.870Z,0
2017-01-30T07:00:08.041Z,0
2017-01-30T07:01:18.212Z,0
2017-01-30T07:02:27.946Z,0
2017-01-30T07:03:37.742Z,0
2017-01-30T07:04:47.923Z,0
2017-01-30T07:05:57.225Z,0
2017-01-30T07:07:06.958Z,0
2017-01-30T07:08:16.246Z,0
2017-01-30T07:09:26.473Z,0
2017-01-30T07:10:36.643Z,0
2017-01-30T07:11:47.257Z,0
2017-01-30T07:12:57.427Z,0
2017-01-30T07:14:07.173Z,0
2017-01-30T07:15:17.394Z,0
2017-01-30T07:16:27.567Z,0
2017-01-30T07:17:37.743Z,0
2017-01-30T07:18:47.922Z,0
2017-01-30T07:19:57.659Z,0
2017-01-30T07:21:07.444Z,0
2017-01-30T07:22:17.177Z,0
2017-01-30T07:23:26.914Z,0
2017-01-30T07:24:37.100Z,0
2017-01-30T07:25:46.837Z,0
2017-01-30T07:26:56.621Z,0
2017-01-30T07:28:06.795Z,0
2017-01-30T07:29:16.964Z,0
2017-01-30T07:30:26.740Z,0
2017-01-30T07:31:36.915Z,0
2017-01-30T07:32:46.699Z,0
2017-01-30T07:33:56.884Z,0
2017-01-30T07:35:07.059Z,0
2017-01-30T07:36:17.236Z,0
2017-01-30T07:37:26.977Z,0
2017-01-30T07:38:36.765Z,0
2017-01-30T07:39:46.500Z,0
2017-01-30T07:40:56.235Z,0
2017-01-30T07:42:06.438Z,0
2017-01-30T07:43:16.608Z,0
2017-01-30T07:44:26.393Z,0
2017-01-30T07:45:36.132Z,0
2017-01-30T07:46:46.310Z,0
2017-01-30T07:47:56.046Z,0
2017-01-30T07:49:05.773Z,0
2017-01-30T07:50:15.559Z,0
2017-01-30T07:51:25.295Z,0
2017-01-30T07:52:35.473Z,0
2017-01-30T07:53:45.649Z,0
2017-01-30T07:54:55.819Z,0
2017-01-30T07:56:06.045Z,0
2017-01-30T07:57:16.226Z,0
2017-01-30T07:58:25.987Z,0
2017-01-30T07:59:35.720Z,0
2017-01-30T08:00:45.454Z,5
2017-01-30T08:01:55.262Z,5
2017-01-30T08:03:04.995Z,5
2017-01-30T08:04:15.165Z,5
2017-01-30T08:05:25.338Z,0
2017-01-30T08:06:35.071Z,0
2017-01-30T08:07:44.855Z,0
2017-01-30T08:08:55.034Z,0
2017-01-30T08:10:05.202Z,0
2017-01-30T08:11:15.372Z,0
2017-01-30T08:12:25.549Z,0
2017-01-30T08:13:35.331Z,5
2017-01-30T08:14:45.505Z,5
2017-01-30T08:15:55.685Z,5
2017-01-30T08:17:05.413Z,5
2017-01-30T08:18:15.686Z,5
2017-01-30T08:19:25.471Z,5
2017-01-30T08:20:35.644Z,5
2017-01-30T08:21:46.703Z,5
2017-01-30T08:22:56.881Z,5
2017-01-30T08:24:07.053Z,5
2017-01-30T08:25:16.845Z,5
2017-01-30T08:26:26.575Z,5
2017-01-30T08:27:36.750Z,5
2017-01-30T08:28:46.485Z,5
2017-01-30T08:29:56.215Z,5
2017-01-30T08:31:06.001Z,5
2017-01-30T08:32:15.734Z,5
2017-01-30T08:33:26.351Z,5
2017-01-30T08:34:36.524Z,5
2017-01-30T08:35:46.697Z,5
2017-01-30T08:36:56.041Z,10
2017-01-30T08:38:05.339Z,5
2017-01-30T08:39:15.512Z,10
2017-01-30T08:40:25.241Z,5
2017-01-30T08:41:34.978Z,10
2017-01-30T08:42:44.323Z,5
2017-01-30T08:43:53.615Z,5
2017-01-30T08:45:03.351Z,5
2017-01-30T08:46:13.083Z,5
2017-01-30T08:47:22.377Z,10
2017-01-30T08:48:31.721Z,10
2017-01-30T08:49:41.014Z,10
2017-01-30T08:50:50.311Z,10
2017-01-30T08:51:59.604Z,10
2017-01-30T08:53:08.897Z,10
2017-01-30T08:54:19.130Z,5
2017-01-30T08:55:28.427Z,5
2017-01-30T08:56:37.719Z,5
2017-01-30T08:57:47.454Z,5
2017-01-30T08:58:56.750Z,5
2017-01-30T09:00:06.095Z,5
2017-01-30T09:01:15.833Z,5
2017-01-30T09:02:25.133Z,5
2017-01-30T09:03:34.870Z,5
2017-01-30T09:04:44.159Z,5
2017-01-30T09:05:54.389Z,5
2017-01-30T09:07:04.126Z,5
2017-01-30T09:08:13.416Z,10
2017-01-30T09:09:23.148Z,10
2017-01-30T09:10:32.889Z,10
2017-01-30T09:11:42.246Z,10
2017-01-30T09:12:51.534Z,15
2017-01-30T09:14:01.714Z,15
2017-01-30T09:15:11.010Z,15
2017-01-30T09:16:20.307Z,15
2017-01-30T09:17:30.091Z,15
2017-01-30T09:18:39.820Z,15
2017-01-30T09:19:49.118Z,15
2017-01-30T09:20:58.410Z,15
2017-01-30T09:22:07.699Z,20
2017-01-30T09:23:17.484Z,15
2017-01-30T09:24:27.218Z,20
2017-01-30T09:25:37.395Z,20
2017-01-30T09:26:46.685Z,20
2017-01-30T09:27:56.422Z,20
2017-01-30T09:29:05.762Z,20
2017-01-30T09:30:15.496Z,20
2017-01-30T09:31:25.232Z,15
2017-01-30T09:32:34.523Z,15
2017-01-30T09:33:43.807Z,15
2017-01-30T09:34:53.140Z,10
2017-01-30T09:36:02.434Z,10
2017-01-30T09:37:12.166Z,10
2017-01-30T09:38:21.466Z,10
2017-01-30T09:39:31.200Z,10
2017-01-30T09:40:40.548Z,10
2017-01-30T09:41:50.283Z,10
2017-01-30T09:42:59.581Z,10
2017-01-30T09:44:08.905Z,10
2017-01-30T09:45:18.199Z,10
2017-01-30T09:46:27.542Z,10
2017-01-30T09:47:37.719Z,10
2017-01-30T09:48:47.894Z,10
2017-01-30T09:49:57.631Z,10
2017-01-30T09:51:06.925Z,10
2017-01-30T09:52:16.269Z,10
2017-01-30T09:53:25.998Z,10
2017-01-30T09:54:35.287Z,10
2017-01-30T09:55:44.587Z,10
2017-01-30T09:56:54.317Z,10
2017-01-30T09:58:04.102Z,5
2017-01-30T09:59:13.835Z,5
2017-01-30T10:00:23.588Z,5
2017-01-30T10:01:32.878Z,5
2017-01-30T10:02:42.625Z,5
2017-01-30T10:03:52.857Z,5
2017-01-30T10:05:02.585Z,5
2017-01-30T10:06:12.763Z,5
2017-01-30T10:07:22.504Z,5
2017-01-30T10:08:31.797Z,5
2017-01-30T10:09:41.585Z,5
2017-01-30T10:10:50.884Z,10
2017-01-30T10:12:01.056Z,10
2017-01-30T10:13:11.226Z,10
2017-01-30T10:14:21.843Z,10
2017-01-30T10:15:31.184Z,15
2017-01-30T10:16:40.478Z,15
2017-01-30T10:17:49.771Z,15
2017-01-30T10:18:59.072Z,15
2017-01-30T10:20:08.819Z,15
2017-01-30T10:21:18.594Z,20
2017-01-30T10:22:27.895Z,20
2017-01-30T10:23:37.197Z,20
2017-01-30T10:24:46.501Z,25
2017-01-30T10:25:56.238Z,20
2017-01-30T10:27:06.018Z,20
2017-01-30T10:28:15.737Z,15
2017-01-30T10:29:25.924Z,15
2017-01-30T10:30:35.651Z,15
2017-01-30T10:31:44.952Z,15
2017-01-30T10:32:54.293Z,15
2017-01-30T10:34:03.587Z,10
2017-01-30T10:35:13.760Z,10
2017-01-30T10:36:23.056Z,15
2017-01-30T10:37:33.231Z,15
2017-01-30T10:38:43.014Z,15
2017-01-30T10:39:53.628Z,15
2017-01-30T10:41:02.918Z,20
2017-01-30T10:42:12.206Z,20
2017-01-30T10:43:21.945Z,25
2017-01-30T10:44:31.282Z,20
2017-01-30T10:45:40.574Z,20
2017-01-30T10:46:50.305Z,20
2017-01-30T10:47:59.598Z,25
2017-01-30T10:49:08.899Z,20
2017-01-30T10:50:18.240Z,25
2017-01-30T10:51:27.974Z,25
2017-01-30T10:52:37.263Z,20
2017-01-30T10:53:46.559Z,20
2017-01-30T10:54:55.856Z,20
2017-01-30T10:56:06.081Z,25
2017-01-30T10:57:16.255Z,20
2017-01-30T10:58:26.437Z,25
2017-01-30T10:59:36.166Z,15
2017-01-30T11:00:45.463Z,20
2017-01-30T11:01:55.251Z,20
2017-01-30T11:03:05.426Z,20
2017-01-30T11:04:15.595Z,15
2017-01-30T11:05:24.879Z,15
2017-01-30T11:06:34.612Z,15
2017-01-30T11:07:44.393Z,20
2017-01-30T11:08:54.128Z,20
2017-01-30T11:10:03.424Z,15
2017-01-30T11:11:12.717Z,25
2017-01-30T11:12:22.443Z,15
2017-01-30T11:13:31.833Z,15
2017-01-30T11:14:41.126Z,15
2017-01-30T11:15:50.423Z,15
2017-01-30T11:16:59.720Z,15
2017-01-30T11:18:09.456Z,20
2017-01-30T11:19:19.675Z,20
2017-01-30T11:20:28.973Z,15
2017-01-30T11:21:38.262Z,20
2017-01-30T11:22:47.562Z,20
2017-01-30T11:23:57.738Z,25
2017-01-30T11:25:07.619Z,20
2017-01-30T11:26:18.241Z,20
2017-01-30T11:27:27.979Z,20
2017-01-30T11:28:38.160Z,25
2017-01-30T11:29:47.893Z,20
2017-01-30T11:30:57.677Z,20
2017-01-30T11:32:07.413Z,20
2017-01-30T11:33:17.147Z,15
2017-01-30T11:34:27.314Z,20
2017-01-30T11:35:36.614Z,20
2017-01-30T11:36:46.395Z,20
2017-01-30T11:37:56.126Z,20
2017-01-30T11:39:05.417Z,20
2017-01-30T11:40:15.159Z,20
2017-01-30T11:41:24.452Z,25
2017-01-30T11:42:34.238Z,25
2017-01-30T11:43:43.531Z,30
2017-01-30T11:44:52.825Z,30
2017-01-30T11:46:02.562Z,35
2017-01-30T11:47:11.848Z,40
2017-01-30T11:48:21.200Z,35
2017-01-30T11:49:30.490Z,45
2017-01-30T11:50:39.783Z,40
2017-01-30T11:51:49.515Z,30
2017-01-30T11:52:59.249Z,35
2017-01-30T11:54:09.036Z,35
2017-01-30T11:55:19.221Z,40
2017-01-30T11:56:28.951Z,45
2017-01-30T11:57:39.565Z,40
2017-01-30T11:58:48.882Z,45
2017-01-30T11:59:59.108Z,35
2017-01-30T12:01:09.292Z,45
2017-01-30T12:02:19.030Z,50
2017-01-30T12:03:28.760Z,40
2017-01-30T12:04:38.059Z,30
2017-01-30T12:05:48.286Z,35
2017-01-30T12:06:57.615Z,45
2017-01-30T12:08:06.907Z,40
2017-01-30T12:09:16.204Z,35
2017-01-30T12:10:25.941Z,30
2017-01-30T12:11:36.602Z,30
2017-01-30T12:12:46.330Z,30
2017-01-30T12:13:56.951Z,30
2017-01-30T12:15:06.689Z,45
2017-01-30T12:16:17.297Z,40
2017-01-30T12:17:26.645Z,50
2017-01-30T12:18:35.938Z,50
2017-01-30T12:19:45.676Z,45
2017-01-30T12:20:54.972Z,45
2017-01-30T12:22:05.595Z,50
2017-01-30T12:23:15.384Z,40
2017-01-30T12:24:25.121Z,40
2017-01-30T12:25:34.411Z,35
2017-01-30T12:26:43.705Z,30
2017-01-30T12:27:53.441Z,35
2017-01-30T12:29:03.221Z,30
2017-01-30T12:30:12.518Z,25
2017-01-30T12:31:22.253Z,25
2017-01-30T12:32:31.986Z,25
2017-01-30T12:33:41.287Z,25
2017-01-30T12:34:50.627Z,25
2017-01-30T12:36:00.354Z,25
2017-01-30T12:37:09.652Z,25
2017-01-30T12:38:18.948Z,30
2017-01-30T12:39:28.244Z,30
2017-01-30T12:40:38.031Z,30
2017-01-30T12:41:47.767Z,25
2017-01-30T12:42:57.056Z,25
2017-01-30T12:44:06.790Z,25
2017-01-30T12:45:16.528Z,25
2017-01-30T12:46:25.872Z,25
2017-01-30T12:47:35.176Z,25
2017-01-30T12:48:45.355Z,25
2017-01-30T12:49:54.675Z,20
2017-01-30T12:51:03.975Z,20
2017-01-30T12:52:13.414Z,20
2017-01-30T12:53:23.145Z,20
2017-01-30T12:54:32.440Z,20
2017-01-30T12:55:42.170Z,20
2017-01-30T12:56:51.482Z,20
2017-01-30T12:58:01.277Z,25
2017-01-30T12:59:10.570Z,25
2017-01-30T13:00:19.866Z,25
2017-01-30T13:01:29.600Z,30
2017-01-30T13:02:38.900Z,30
2017-01-30T13:03:48.685Z,35
2017-01-30T13:04:58.423Z,30
2017-01-30T13:06:07.715Z,25
2017-01-30T13:07:17.446Z,25
2017-01-30T13:08:26.745Z,25
2017-01-30T13:09:36.965Z,25
2017-01-30T13:10:46.262Z,20
2017-01-30T13:11:55.555Z,20
2017-01-30T13:13:05.735Z,15
2017-01-30T13:14:15.471Z,15
2017-01-30T13:15:24.815Z,20
2017-01-30T13:16:34.112Z,15
2017-01-30T13:17:43.408Z,15
2017-01-30T13:18:52.698Z,15
2017-01-30T13:20:01.992Z,15
2017-01-30T13:21:11.780Z,15
2017-01-30T13:22:21.509Z,15
2017-01-30T13:23:30.822Z,15
2017-01-30T13:24:40.553Z,15
2017-01-30T13:25:51.173Z,15
2017-01-30T13:27:00.964Z,15
2017-01-30T13:28:10.695Z,15
2017-01-30T13:29:20.440Z,15
2017-01-30T13:30:29.741Z,20
2017-01-30T13:31:39.482Z,20
2017-01-30T13:32:48.826Z,20
2017-01-30T13:33:59.000Z,20
2017-01-30T13:35:08.290Z,20
2017-01-30T13:36:17.581Z,15
2017-01-30T13:37:27.326Z,15
2017-01-30T13:38:37.117Z,15
2017-01-30T13:39:46.414Z,15
2017-01-30T13:40:56.142Z,15
2017-01-30T13:42:05.876Z,15
2017-01-30T13:43:15.169Z,15
2017-01-30T13:44:25.862Z,15
2017-01-30T13:45:35.599Z,15
2017-01-30T13:46:44.899Z,15
2017-01-30T13:47:54.629Z,20
2017-01-30T13:49:03.925Z,20
2017-01-30T13:50:13.415Z,20
2017-01-30T13:51:22.706Z,20
2017-01-30T13:52:31.998Z,20
2017-01-30T13:53:41.292Z,20
2017-01-30T13:54:51.024Z,20
2017-01-30T13:56:00.966Z,25
2017-01-30T13:57:10.703Z,15
2017-01-30T13:58:20.435Z,20
2017-01-30T13:59:30.169Z,20
2017-01-30T14:00:39.485Z,20
2017-01-30T14:01:49.266Z,20
2017-01-30T14:02:58.595Z,20
2017-01-30T14:04:08.332Z,15
2017-01-30T14:05:17.627Z,15
2017-01-30T14:06:26.925Z,15
2017-01-30T14:07:36.701Z,15
2017-01-30T14:08:46.000Z,15
2017-01-30T14:09:56.180Z,15
2017-01-30T14:11:06.361Z,15
2017-01-30T14:12:16.097Z,10
2017-01-30T14:13:26.030Z,10
2017-01-30T14:14:35.321Z,10
2017-01-30T14:15:45.057Z,10
2017-01-30T14:16:54.350Z,10
2017-01-30T14:18:04.083Z,10
2017-01-30T14:19:14.309Z,10
2017-01-30T14:20:24.481Z,10
2017-01-30T14:21:35.101Z,10
2017-01-30T14:22:44.828Z,10
2017-01-30T14:23:54.599Z,10
2017-01-30T14:25:04.825Z,10
2017-01-30T14:26:14.995Z,15
2017-01-30T14:27:24.289Z,10
2017-01-30T14:28:33.578Z,10
2017-01-30T14:29:43.311Z,10
2017-01-30T14:30:52.656Z,10
2017-01-30T14:32:02.393Z,10
2017-01-30T14:33:12.129Z,10
2017-01-30T14:34:21.447Z,10
2017-01-30T14:35:30.737Z,10
2017-01-30T14:36:40.521Z,10
2017-01-30T14:37:49.829Z,15
2017-01-30T14:38:59.564Z,15
2017-01-30T14:40:09.301Z,15
2017-01-30T14:41:18.595Z,10
2017-01-30T14:42:27.947Z,5
2017-01-30T14:43:37.236Z,5
2017-01-30T14:44:46.967Z,5
2017-01-30T14:45:56.251Z,5
2017-01-30T14:47:05.549Z,5
2017-01-30T14:48:15.334Z,5
2017-01-30T14:49:25.514Z,5
2017-01-30T14:50:35.252Z,5
2017-01-30T14:51:44.551Z,5
2017-01-30T14:52:54.728Z,5
2017-01-30T14:54:04.951Z,5
2017-01-30T14:55:14.244Z,5
2017-01-30T14:56:23.981Z,5
2017-01-30T14:57:33.281Z,5
2017-01-30T14:58:42.579Z,5
2017-01-30T14:59:51.921Z,5
2017-01-30T15:01:01.221Z,5
2017-01-30T15:02:10.522Z,5
2017-01-30T15:03:19.823Z,5
2017-01-30T15:04:30.442Z,5
2017-01-30T15:05:39.790Z,0
2017-01-30T15:06:49.080Z,0
2017-01-30T15:07:58.813Z,0
2017-01-30T15:09:08.114Z,0
2017-01-30T15:10:18.734Z,0
2017-01-30T15:11:28.573Z,0
2017-01-30T15:12:38.306Z,0
2017-01-30T15:13:48.039Z,0
2017-01-30T15:14:58.218Z,0
2017-01-30T15:16:08.395Z,0
2017-01-30T15:17:17.738Z,0
2017-01-30T15:18:27.910Z,0
2017-01-30T15:19:37.207Z,0
2017-01-30T15:20:47.479Z,0
2017-01-30T15:21:56.783Z,0
2017-01-30T15:23:06.596Z,0
2017-01-30T15:24:15.894Z,0
2017-01-30T15:25:25.625Z,0
2017-01-30T15:26:34.919Z,0
2017-01-30T15:27:44.653Z,0
2017-01-30T15:28:54.444Z,0
2017-01-30T15:30:04.617Z,0
2017-01-30T15:31:14.792Z,0
2017-01-30T15:32:24.974Z,0
2017-01-30T15:33:34.730Z,0
2017-01-30T15:34:44.507Z,0
2017-01-30T15:35:54.683Z,0
2017-01-30T15:37:04.417Z,0
2017-01-30T15:38:13.713Z,0
2017-01-30T15:39:23.443Z,0
2017-01-30T15:40:33.697Z,0
2017-01-30T15:41:42.982Z,0
2017-01-30T15:42:52.272Z,0
2017-01-30T15:44:01.568Z,0
2017-01-30T15:45:53.181Z,0
2017-01-30T15:47:02.945Z,0
2017-01-30T15:48:12.683Z,0
2017-01-30T15:49:22.417Z,0
2017-01-30T15:50:31.711Z,0
2017-01-30T15:51:41.508Z,0
2017-01-30T15:52:51.249Z,0
2017-01-30T15:54:00.985Z,0
2017-01-30T15:55:10.716Z,0
2017-01-30T15:56:20.020Z,0
2017-01-30T15:57:29.356Z,0
2017-01-30T15:58:39.089Z,0
2017-01-30T15:59:49.266Z,0
2017-01-30T16:00:59.000Z,0
2017-01-30T16:02:09.202Z,0
2017-01-30T16:03:18.544Z,0
2017-01-30T16:04:29.156Z,0
2017-01-30T16:05:38.450Z,0
2017-01-30T16:06:48.187Z,0
2017-01-30T16:07:57.930Z,0
2017-01-30T16:09:07.715Z,0
2017-01-30T16:10:17.450Z,0
2017-01-30T16:11:27.181Z,0
2017-01-30T16:12:37.353Z,0
2017-01-30T16:13:47.106Z,0
2017-01-30T16:14:56.924Z,0
2017-01-30T16:16:06.668Z,0
2017-01-30T16:17:16.844Z,0
2017-01-30T16:18:26.134Z,0
2017-01-30T16:19:35.457Z,0
2017-01-30T16:20:44.809Z,0
2017-01-30T16:21:54.102Z,0
2017-01-30T16:23:03.839Z,0
2017-01-30T16:24:13.128Z,0
2017-01-30T16:25:23.314Z,0
2017-01-30T16:26:33.987Z,0
2017-01-30T16:27:43.280Z,0
2017-01-30T16:28:52.573Z,0
2017-01-30T16:30:02.310Z,0
2017-01-30T16:31:11.620Z,0
2017-01-30T16:32:20.967Z,0
2017-01-30T16:33:31.144Z,0
2017-01-30T16:34:40.879Z,0
2017-01-30T16:35:51.061Z,0
2017-01-30T16:37:00.794Z,0
2017-01-30T16:38:10.607Z,0
2017-01-30T16:39:19.904Z,0
2017-01-30T16:40:29.642Z,0
2017-01-30T16:41:39.379Z,0
2017-01-30T16:42:48.678Z,0
2017-01-30T16:43:58.604Z,0
2017-01-30T16:45:08.338Z,0
2017-01-30T16:46:17.628Z,0
2017-01-30T16:47:27.368Z,0
2017-01-30T16:48:37.104Z,0
2017-01-30T16:49:47.326Z,0
2017-01-30T16:50:56.643Z,0
2017-01-30T16:52:06.378Z,0
2017-01-30T16:53:16.115Z,0
2017-01-30T16:54:25.416Z,0
2017-01-30T16:55:35.197Z,0
2017-01-30T16:56:44.930Z,0
2017-01-30T16:57:54.218Z,0
2017-01-30T16:59:04.397Z,0
2017-01-30T17:00:13.694Z,0